Time;durP1;ratioP1;P1;durP2;ratioP2;P2;SDS_P1;SDS_P2;PMS_P1;PMS_P2;Temp;Humidity;BMP_temperature;BMP_pressure;BME280_temperature;BME280_humidity;BME280_pressure;Samples;Min_cycle;Max_cycle;Signal;HPM_P1;HPM_P2
2024/03/11 00:00:52;;;;;;;3.42;1.58;;;;;;;;;;5055088;28;20037;-57
2024/03/11 00:03:18;;;;;;;2.08;1.33;;;;;;;;;;5055121;28;20352;-57
2024/03/11 00:05:44;;;;;;;2.45;1.38;;;;;;;;;;5054516;28;20028;-57
2024/03/11 00:08:16;;;;;;;3.67;1.30;;;;;;;;;;5055493;28;20021;-58
2024/03/11 00:10:41;;;;;;;2.38;1.45;;;;;;;;;;5055070;28;20463;-57
2024/03/11 00:13:10;;;;;;;2.20;1.20;;;;;;;;;;5054845;28;20124;-58
2024/03/11 00:15:36;;;;;;;2.08;0.90;;;;;;;;;;5054575;28;20116;-57
2024/03/11 00:18:02;;;;;;;3.00;1.63;;;;;;;;;;5054755;28;20060;-57
2024/03/11 00:20:28;;;;;;;2.40;1.75;;;;;;;;;;5055228;28;20075;-55
2024/03/11 00:22:54;;;;;;;2.40;1.50;;;;;;;;;;5054626;28;20025;-57
2024/03/11 00:25:20;;;;;;;2.40;1.73;;;;;;;;;;5054273;28;20541;-57
2024/03/11 00:27:46;;;;;;;2.45;1.58;;;;;;;;;;5055073;28;20025;-57
2024/03/11 00:30:12;;;;;;;1.42;0.90;;;;;;;;;;5054461;28;20033;-55
2024/03/11 00:32:43;;;;;;;2.50;1.67;;;;;;;;;;5054362;28;20123;-57
2024/03/11 00:35:10;;;;;;;1.83;1.23;;;;;;;;;;5054947;28;20032;-58
2024/03/11 00:37:36;;;;;;;2.42;1.60;;;;;;;;;;5054638;28;20040;-58
2024/03/11 00:40:05;;;;;;;5.70;1.40;;;;;;;;;;5054383;28;20068;-58
2024/03/11 00:42:33;;;;;;;2.70;1.77;;;;;;;;;;5054246;28;20486;-57
2024/03/11 00:44:59;;;;;;;3.00;1.63;;;;;;;;;;5054241;28;20017;-57
2024/03/11 00:47:25;;;;;;;2.45;1.65;;;;;;;;;;5054173;28;20032;-58
2024/03/11 00:49:51;;;;;;;2.97;1.60;;;;;;;;;;5054510;28;20064;-58
2024/03/11 00:52:17;;;;;;;2.80;1.20;;;;;;;;;;5053847;28;20029;-57
2024/03/11 00:54:44;;;;;;;2.65;1.85;;;;;;;;;;5054600;28;20055;-58
2024/03/11 00:57:10;;;;;;;3.60;2.17;;;;;;;;;;5054360;28;20052;-58
2024/03/11 00:59:36;;;;;;;2.58;1.42;;;;;;;;;;5054530;28;20112;-56
2024/03/11 01:02:02;;;;;;;2.38;1.48;;;;;;;;;;5053999;28;20025;-57
2024/03/11 01:04:28;;;;;;;2.47;1.42;;;;;;;;;;5053597;28;20074;-57
2024/03/11 01:06:54;;;;;;;2.17;1.48;;;;;;;;;;5053937;28;20106;-58
2024/03/11 01:09:20;;;;;;;2.55;1.70;;;;;;;;;;5054124;28;20056;-57
2024/03/11 01:11:50;;;;;;;2.88;1.52;;;;;;;;;;5053757;28;20031;-58
2024/03/11 01:14:16;;;;;;;2.33;1.40;;;;;;;;;;5053775;28;20029;-57
2024/03/11 01:16:42;;;;;;;2.75;1.50;;;;;;;;;;5052573;28;20375;-56
2024/03/11 01:19:08;;;;;;;6.18;1.80;;;;;;;;;;5053969;28;20474;-58
2024/03/11 01:21:35;;;;;;;3.10;1.77;;;;;;;;;;5054278;28;20064;-56
2024/03/11 01:24:03;;;;;;;3.03;1.73;;;;;;;;;;5054232;28;20029;-57
2024/03/11 01:26:29;;;;;;;4.57;2.08;;;;;;;;;;5053600;28;20447;-58
2024/03/11 01:28:55;;;;;;;1.95;1.27;;;;;;;;;;5054130;28;20060;-58
2024/03/11 01:31:23;;;;;;;2.40;1.60;;;;;;;;;;5053516;28;20067;-58
2024/03/11 01:33:49;;;;;;;1.85;1.02;;;;;;;;;;5053570;28;20375;-57
2024/03/11 01:36:15;;;;;;;3.17;1.65;;;;;;;;;;5053509;28;20021;-57
2024/03/11 01:38:41;;;;;;;8.07;1.90;;;;;;;;;;5054069;28;20029;-57
2024/03/11 01:41:07;;;;;;;2.25;1.40;;;;;;;;;;5053534;28;20455;-57
2024/03/11 01:43:33;;;;;;;2.05;1.40;;;;;;;;;;5053403;28;20029;-57
2024/03/11 01:46:00;;;;;;;2.10;1.50;;;;;;;;;;5053722;28;20036;-57
2024/03/11 01:48:26;;;;;;;1.85;1.20;;;;;;;;;;5053454;28;20029;-53
2024/03/11 01:50:54;;;;;;;1.90;1.40;;;;;;;;;;5053263;28;20059;-58
2024/03/11 01:53:20;;;;;;;2.13;1.20;;;;;;;;;;5053617;28;20037;-57
2024/03/11 01:55:49;;;;;;;3.15;1.75;;;;;;;;;;5053469;28;20087;-57
2024/03/11 01:58:16;;;;;;;2.53;1.30;;;;;;;;;;5053016;28;20115;-57
2024/03/11 02:00:42;;;;;;;2.33;1.33;;;;;;;;;;5052060;28;20083;-57
2024/03/11 02:03:08;;;;;;;2.00;1.27;;;;;;;;;;5053019;28;20478;-57
2024/03/11 02:05:40;;;;;;;3.20;1.45;;;;;;;;;;5053259;28;20051;-57
2024/03/11 02:08:06;;;;;;;1.85;1.10;;;;;;;;;;5054044;28;20025;-57
2024/03/11 02:10:33;;;;;;;2.25;1.45;;;;;;;;;;5053190;28;20064;-57
2024/03/11 02:12:59;;;;;;;1.70;1.17;;;;;;;;;;5052922;28;20455;-57
2024/03/11 02:15:25;;;;;;;1.95;0.88;;;;;;;;;;5053924;28;20025;-57
2024/03/11 02:17:51;;;;;;;2.28;1.27;;;;;;;;;;5053166;28;20040;-58
2024/03/11 02:20:17;;;;;;;1.90;1.15;;;;;;;;;;5053306;28;20033;-57
2024/03/11 02:22:44;;;;;;;1.55;0.90;;;;;;;;;;5053191;28;20094;-57
2024/03/11 02:25:12;;;;;;;4.53;1.38;;;;;;;;;;5053080;28;20025;-58
2024/03/11 02:27:39;;;;;;;1.98;1.38;;;;;;;;;;5054108;28;20029;-56
2024/03/11 02:30:07;;;;;;;1.92;1.08;;;;;;;;;;5057524;28;20363;-57
2024/03/11 02:32:33;;;;;;;2.05;1.00;;;;;;;;;;5056593;28;20485;-58
2024/03/11 02:34:59;;;;;;;1.77;1.10;;;;;;;;;;5056610;28;20021;-56
2024/03/11 02:37:25;;;;;;;1.90;1.13;;;;;;;;;;5056788;28;20040;-56
2024/03/11 02:39:51;;;;;;;1.80;0.90;;;;;;;;;;5056624;28;20051;-57
2024/03/11 02:42:18;;;;;;;2.50;1.40;;;;;;;;;;5056541;28;20033;-56
2024/03/11 02:44:44;;;;;;;3.80;1.08;;;;;;;;;;5057072;28;20039;-57
2024/03/11 02:47:10;;;;;;;2.00;1.17;;;;;;;;;;5056236;28;20036;-53
2024/03/11 02:49:37;;;;;;;2.28;1.35;;;;;;;;;;5056997;28;20374;-58
2024/03/11 02:52:03;;;;;;;2.22;0.88;;;;;;;;;;5056399;28;20025;-55
2024/03/11 02:54:29;;;;;;;1.55;0.88;;;;;;;;;;5056376;28;20028;-57
2024/03/11 02:56:55;;;;;;;1.77;0.85;;;;;;;;;;5056420;28;20479;-55
2024/03/11 02:59:21;;;;;;;1.67;0.77;;;;;;;;;;5057116;28;20040;-55
2024/03/11 03:01:47;;;;;;;1.38;0.82;;;;;;;;;;5056459;28;20474;-58
2024/03/11 03:04:13;;;;;;;2.45;1.25;;;;;;;;;;5055897;28;20107;-58
2024/03/11 03:06:39;;;;;;;1.95;1.08;;;;;;;;;;5056087;28;20028;-58
2024/03/11 03:09:06;;;;;;;2.45;0.90;;;;;;;;;;5055998;28;20021;-56
2024/03/11 03:11:32;;;;;;;1.67;0.60;;;;;;;;;;5056088;28;20033;-58
2024/03/11 03:13:58;;;;;;;1.50;0.85;;;;;;;;;;5055997;28;20025;-58
2024/03/11 03:16:24;;;;;;;1.75;0.80;;;;;;;;;;5055964;28;20425;-58
2024/03/11 03:18:50;;;;;;;2.58;0.90;;;;;;;;;;5056481;28;20029;-57
2024/03/11 03:21:17;;;;;;;1.65;0.70;;;;;;;;;;5055876;28;20099;-58
2024/03/11 03:23:43;;;;;;;1.55;0.95;;;;;;;;;;5056298;28;20052;-58
2024/03/11 03:26:09;;;;;;;2.17;1.13;;;;;;;;;;5055744;28;20060;-55
2024/03/11 03:28:34;;;;;;;1.52;0.77;;;;;;;;;;5056556;28;20029;-58
2024/03/11 03:31:00;;;;;;;2.30;1.15;;;;;;;;;;5055540;28;20033;-58
2024/03/11 03:33:27;;;;;;;0.98;0.60;;;;;;;;;;5055366;28;20364;-57
2024/03/11 03:35:53;;;;;;;1.60;0.93;;;;;;;;;;5056122;28;20087;-58
2024/03/11 03:38:19;;;;;;;1.80;1.05;;;;;;;;;;5056225;28;20032;-56
2024/03/11 03:40:45;;;;;;;3.30;1.42;;;;;;;;;;5055052;28;20481;-57
2024/03/11 03:43:11;;;;;;;0.95;0.57;;;;;;;;;;5055463;28;20076;-58
2024/03/11 03:45:37;;;;;;;1.30;0.80;;;;;;;;;;5055884;28;20077;-57
2024/03/11 03:48:03;;;;;;;1.55;0.73;;;;;;;;;;5055707;28;20573;-57
2024/03/11 03:50:30;;;;;;;1.55;1.10;;;;;;;;;;5055269;28;20033;-56
2024/03/11 03:52:56;;;;;;;1.77;0.60;;;;;;;;;;5055265;28;20033;-57
2024/03/11 03:55:23;;;;;;;1.25;0.63;;;;;;;;;;5055214;28;20029;-57
2024/03/11 03:57:49;;;;;;;1.40;0.80;;;;;;;;;;5056042;28;20455;-58
2024/03/11 04:00:16;;;;;;;1.10;0.55;;;;;;;;;;5055078;28;20033;-57
2024/03/11 04:02:42;;;;;;;1.60;0.85;;;;;;;;;;5055035;28;20130;-57
2024/03/11 04:05:09;;;;;;;1.92;0.77;;;;;;;;;;5055254;28;20036;-58
2024/03/11 04:07:35;;;;;;;1.88;0.77;;;;;;;;;;5055502;28;20029;-57
2024/03/11 04:10:01;;;;;;;1.42;0.75;;;;;;;;;;5055112;28;20025;-57
2024/03/11 04:12:28;;;;;;;1.60;0.90;;;;;;;;;;5054638;28;20382;-58
2024/03/11 04:14:55;;;;;;;1.33;0.70;;;;;;;;;;5054845;28;20032;-57
2024/03/11 04:17:22;;;;;;;1.40;0.70;;;;;;;;;;5055539;28;20024;-57
2024/03/11 04:19:48;;;;;;;2.33;0.93;;;;;;;;;;5054989;28;20036;-57
2024/03/11 04:22:14;;;;;;;1.80;0.80;;;;;;;;;;5054625;28;20021;-55
2024/03/11 04:24:41;;;;;;;1.13;0.60;;;;;;;;;;5054297;28;20021;-57
2024/03/11 04:27:11;;;;;;;4.75;1.33;;;;;;;;;;5055246;28;20029;-57
2024/03/11 04:29:36;;;;;;;1.85;1.05;;;;;;;;;;5055276;28;20040;-57
2024/03/11 04:32:03;;;;;;;2.63;1.33;;;;;;;;;;5054585;28;20033;-58
2024/03/11 04:34:29;;;;;;;1.27;0.68;;;;;;;;;;5055044;28;20458;-57
2024/03/11 04:36:56;;;;;;;1.58;0.90;;;;;;;;;;5054888;28;20055;-57
2024/03/11 04:39:21;;;;;;;1.77;1.10;;;;;;;;;;5055844;28;20400;-57
2024/03/11 04:41:48;;;;;;;1.58;0.95;;;;;;;;;;5054073;28;20056;-57
2024/03/11 04:44:14;;;;;;;1.88;0.88;;;;;;;;;;5055080;28;20437;-56
2024/03/11 04:46:40;;;;;;;1.92;0.98;;;;;;;;;;5054221;28;20029;-58
2024/03/11 04:49:06;;;;;;;4.45;1.23;;;;;;;;;;5054479;28;20025;-56
2024/03/11 04:51:32;;;;;;;1.73;0.90;;;;;;;;;;5054553;28;20029;-57
2024/03/11 04:54:00;;;;;;;1.92;1.05;;;;;;;;;;5054438;28;20074;-57
2024/03/11 04:56:28;;;;;;;2.83;1.55;;;;;;;;;;5053998;28;20049;-58
2024/03/11 04:58:54;;;;;;;3.38;1.30;;;;;;;;;;5054534;28;20033;-57
2024/03/11 05:01:20;;;;;;;2.08;1.15;;;;;;;;;;5054012;28;20107;-58
2024/03/11 05:03:46;;;;;;;2.15;1.17;;;;;;;;;;5054055;28;20029;-57
2024/03/11 05:06:12;;;;;;;2.90;1.52;;;;;;;;;;5054649;28;20362;-58
2024/03/11 05:08:38;;;;;;;3.15;1.38;;;;;;;;;;5053960;28;20025;-57
2024/03/11 05:11:04;;;;;;;1.85;1.17;;;;;;;;;;5054334;28;20071;-56
2024/03/11 05:13:31;;;;;;;5.50;1.73;;;;;;;;;;5054182;28;20166;-58
2024/03/11 05:15:57;;;;;;;2.08;1.27;;;;;;;;;;5054112;28;20025;-55
2024/03/11 05:18:23;;;;;;;2.90;1.38;;;;;;;;;;5054149;28;20031;-57
2024/03/11 05:20:49;;;;;;;2.33;1.35;;;;;;;;;;5054287;28;20035;-58
2024/03/11 05:23:15;;;;;;;2.78;1.20;;;;;;;;;;5053737;28;20116;-58
2024/03/11 05:25:41;;;;;;;1.98;1.00;;;;;;;;;;5053721;28;20025;-56
2024/03/11 05:28:07;;;;;;;1.95;1.08;;;;;;;;;;5054003;28;20075;-57
2024/03/11 05:30:33;;;;;;;2.53;1.40;;;;;;;;;;5053461;28;20033;-57
2024/03/11 05:32:59;;;;;;;2.40;1.42;;;;;;;;;;5053538;28;20025;-56
2024/03/11 05:35:25;;;;;;;2.15;1.35;;;;;;;;;;5053111;28;20086;-58
2024/03/11 05:37:52;;;;;;;3.53;1.77;;;;;;;;;;5054161;28;20025;-56
2024/03/11 05:40:18;;;;;;;2.40;1.30;;;;;;;;;;5054261;28;20025;-56
2024/03/11 05:42:48;;;;;;;2.70;1.42;;;;;;;;;;5053439;28;20033;-56
2024/03/11 05:45:14;;;;;;;2.25;1.50;;;;;;;;;;5054039;28;20059;-55
2024/03/11 05:47:41;;;;;;;2.13;1.35;;;;;;;;;;5053239;28;20386;-57
2024/03/11 05:50:09;;;;;;;2.42;1.05;;;;;;;;;;5053710;28;20037;-57
2024/03/11 05:52:35;;;;;;;4.07;1.40;;;;;;;;;;5053284;28;20029;-57
2024/03/11 05:55:08;;;;;;;1.98;1.13;;;;;;;;;;5053280;28;20025;-57
2024/03/11 05:57:35;;;;;;;2.28;1.20;;;;;;;;;;5053733;28;20061;-58
2024/03/11 06:00:03;;;;;;;2.72;1.38;;;;;;;;;;5053254;28;20418;-55
2024/03/11 06:02:29;;;;;;;2.20;0.88;;;;;;;;;;5054405;28;20025;-56
2024/03/11 06:04:55;;;;;;;1.85;1.15;;;;;;;;;;5057668;28;20036;-57
2024/03/11 06:07:25;;;;;;;1.88;1.38;;;;;;;;;;5057532;28;20108;-58
2024/03/11 06:09:51;;;;;;;2.05;1.23;;;;;;;;;;5057206;28;20489;-58
2024/03/11 06:12:19;;;;;;;3.13;1.77;;;;;;;;;;5057338;28;20029;-56
2024/03/11 06:14:45;;;;;;;2.15;1.35;;;;;;;;;;5057798;28;20404;-58
2024/03/11 06:17:12;;;;;;;2.15;1.20;;;;;;;;;;5057616;28;20406;-56
2024/03/11 06:19:38;;;;;;;4.10;1.65;;;;;;;;;;5057231;28;20075;-57
2024/03/11 06:22:05;;;;;;;2.72;1.60;;;;;;;;;;5057038;28;20029;-57
2024/03/11 06:24:32;;;;;;;2.58;1.48;;;;;;;;;;5057007;28;20372;-57
2024/03/11 06:26:58;;;;;;;5.38;1.38;;;;;;;;;;5056949;28;20063;-57
2024/03/11 06:29:28;;;;;;;1.45;0.85;;;;;;;;;;5057399;28;20064;-55
2024/03/11 06:31:55;;;;;;;;;;;;;;;;;;5057296;28;20033;-56
2024/03/11 06:34:24;;;;;;;2.53;1.60;;;;;;;;;;5056850;28;19928;-57
2024/03/11 06:36:50;;;;;;;1.80;1.20;;;;;;;;;;5056770;28;20078;-56
2024/03/11 06:39:18;;;;;;;2.47;1.60;;;;;;;;;;5057568;28;20025;-54
2024/03/11 06:41:44;;;;;;;2.33;1.25;;;;;;;;;;5056720;28;20021;-57
2024/03/11 06:44:10;;;;;;;3.38;1.15;;;;;;;;;;5057203;28;20408;-57
2024/03/11 06:46:36;;;;;;;2.10;1.27;;;;;;;;;;5056610;28;20108;-57
2024/03/11 06:49:02;;;;;;;2.00;1.08;;;;;;;;;;5056593;28;20096;-55
2024/03/11 06:51:30;;;;;;;2.15;1.02;;;;;;;;;;5056652;28;20029;-57
2024/03/11 06:53:56;;;;;;;2.30;1.73;;;;;;;;;;5056771;28;20029;-55
2024/03/11 06:56:22;;;;;;;3.05;1.13;;;;;;;;;;5056652;28;20098;-55
2024/03/11 06:58:48;;;;;;;2.33;1.10;;;;;;;;;;5056710;28;20039;-57
2024/03/11 07:01:14;;;;;;;3.28;1.30;;;;;;;;;;5056283;28;20040;-52
2024/03/11 07:03:41;;;;;;;2.03;1.23;;;;;;;;;;5055839;28;20029;-56
2024/03/11 07:06:08;;;;;;;3.35;1.23;;;;;;;;;;5056215;28;20033;-57
2024/03/11 07:08:36;;;;;;;5.18;1.50;;;;;;;;;;5056615;28;20029;-51
2024/03/11 07:11:02;;;;;;;1.52;0.70;;;;;;;;;;5056420;28;20036;-56
2024/03/11 07:13:37;;;;;;;4.95;1.45;;;;;;;;;;5055255;28;20036;-56
2024/03/11 07:16:04;;;;;;;2.10;0.90;;;;;;;;;;5056051;28;20463;-57
2024/03/11 07:18:30;;;;;;;1.50;0.75;;;;;;;;;;5056172;28;20040;-57
2024/03/11 07:20:59;;;;;;;3.30;1.25;;;;;;;;;;5056436;28;20344;-57
2024/03/11 07:23:28;;;;;;;1.42;0.80;;;;;;;;;;5056387;28;20025;-56
2024/03/11 07:25:58;;;;;;;1.05;0.80;;;;;;;;;;5055807;28;20043;-57
2024/03/11 07:28:26;;;;;;;2.75;1.00;;;;;;;;;;5056082;28;20040;-57
2024/03/11 07:30:52;;;;;;;1.70;0.65;;;;;;;;;;5055652;28;20044;-58
2024/03/11 07:33:20;;;;;;;1.70;0.75;;;;;;;;;;5056282;28;20020;-57
2024/03/11 07:35:47;;;;;;;2.58;0.70;;;;;;;;;;5056593;28;20029;-57
2024/03/11 07:38:14;;;;;;;1.55;0.68;;;;;;;;;;5055949;28;20025;-57
2024/03/11 07:40:40;;;;;;;1.10;0.60;;;;;;;;;;5055628;28;20447;-57
2024/03/11 07:43:07;;;;;;;1.02;0.60;;;;;;;;;;5055593;28;20044;-56
2024/03/11 07:45:34;;;;;;;1.35;0.80;;;;;;;;;;5056385;28;20071;-56
2024/03/11 07:48:01;;;;;;;1.10;0.63;;;;;;;;;;5056371;28;20116;-55
2024/03/11 07:50:27;;;;;;;0.90;0.47;;;;;;;;;;5055285;28;20029;-55
2024/03/11 07:52:56;;;;;;;0.90;0.40;;;;;;;;;;5055952;28;20035;-55
2024/03/11 07:55:24;;;;;;;0.95;0.47;;;;;;;;;;5055581;28;20060;-54
2024/03/11 07:57:53;;;;;;;2.65;0.50;;;;;;;;;;5055946;28;20037;-55
2024/03/11 08:00:20;;;;;;;1.50;0.57;;;;;;;;;;5056096;28;20029;-57
2024/03/11 08:02:47;;;;;;;2.90;0.57;;;;;;;;;;5055128;28;20036;-57
2024/03/11 08:05:13;;;;;;;3.45;0.57;;;;;;;;;;5055082;28;20074;-56
2024/03/11 08:07:42;;;;;;;2.97;0.60;;;;;;;;;;5055122;28;20028;-57
2024/03/11 08:10:09;;;;;;;1.75;0.80;;;;;;;;;;5055643;28;20439;-54
2024/03/11 08:12:36;;;;;;;1.00;0.45;;;;;;;;;;5054867;28;20037;-56
2024/03/11 08:15:04;;;;;;;3.08;0.90;;;;;;;;;;5055434;28;20469;-56
2024/03/11 08:17:30;;;;;;;0.80;0.47;;;;;;;;;;5054868;28;20036;-55
2024/03/11 08:19:56;;;;;;;0.95;0.40;;;;;;;;;;5055435;28;20028;-58
2024/03/11 08:22:22;;;;;;;1.45;0.50;;;;;;;;;;5054880;28;20458;-57
2024/03/11 08:24:48;;;;;;;0.80;0.32;;;;;;;;;;5054728;28;20494;-56
2024/03/11 08:27:15;;;;;;;1.48;0.63;;;;;;;;;;5054619;28;20414;-54
2024/03/11 08:29:42;;;;;;;0.98;0.35;;;;;;;;;;5055280;28;20029;-53
2024/03/11 08:32:09;;;;;;;0.57;0.32;;;;;;;;;;5054572;28;20374;-57
2024/03/11 08:34:35;;;;;;;1.88;0.50;;;;;;;;;;5054190;28;20474;-57
2024/03/11 08:37:04;;;;;;;2.72;0.68;;;;;;;;;;5055133;28;20070;-52
2024/03/11 08:39:30;;;;;;;1.27;0.50;;;;;;;;;;5055074;28;20091;-55
2024/03/11 08:41:57;;;;;;;0.40;0.30;;;;;;;;;;5054453;28;20029;-55
2024/03/11 08:44:23;;;;;;;0.85;0.40;;;;;;;;;;5054419;28;20040;-58
2024/03/11 08:46:51;;;;;;;1.38;0.50;;;;;;;;;;5054397;28;20099;-56
2024/03/11 08:49:17;;;;;;;0.82;0.32;;;;;;;;;;5054282;28;20033;-56
2024/03/11 08:51:43;;;;;;;1.50;0.60;;;;;;;;;;5053992;28;20029;-57
2024/03/11 08:54:09;;;;;;;0.75;0.30;;;;;;;;;;5055326;28;20031;-57
2024/03/11 08:56:36;;;;;;;0.55;0.30;;;;;;;;;;5054071;28;20120;-58
2024/03/11 08:59:10;;;;;;;0.32;0.20;;;;;;;;;;5054139;28;20029;-55
2024/03/11 09:01:36;;;;;;;0.63;0.40;;;;;;;;;;5054472;28;20455;-54
2024/03/11 09:04:02;;;;;;;0.73;0.30;;;;;;;;;;5054346;28;20025;-55
2024/03/11 09:06:28;;;;;;;0.52;0.20;;;;;;;;;;5054055;28;20033;-57
2024/03/11 09:08:56;;;;;;;1.17;0.52;;;;;;;;;;5054537;28;20036;-58
2024/03/11 09:11:22;;;;;;;0.60;0.28;;;;;;;;;;5054678;28;20379;-55
2024/03/11 09:13:49;;;;;;;0.60;0.30;;;;;;;;;;5053621;28;20033;-58
2024/03/11 09:16:15;;;;;;;2.03;0.47;;;;;;;;;;5053826;28;20029;-58
2024/03/11 09:18:41;;;;;;;0.25;0.20;;;;;;;;;;5053618;28;20082;-58
2024/03/11 09:21:07;;;;;;;1.23;0.50;;;;;;;;;;5053816;28;20451;-56
2024/03/11 09:23:32;;;;;;;1.38;0.40;;;;;;;;;;5053824;28;20112;-58
2024/03/11 09:26:01;;;;;;;1.75;0.60;;;;;;;;;;5053488;28;20118;-57
2024/03/11 09:28:28;;;;;;;1.20;0.40;;;;;;;;;;5053972;28;20021;-57
2024/03/11 09:30:56;;;;;;;0.95;0.28;;;;;;;;;;5054094;28;20073;-56
2024/03/11 09:33:23;;;;;;;1.02;0.45;;;;;;;;;;5053694;28;20051;-57
2024/03/11 09:35:50;;;;;;;1.48;0.40;;;;;;;;;;5053599;28;20049;-58
2024/03/11 09:38:16;;;;;;;0.77;0.30;;;;;;;;;;5052889;28;20025;-56
2024/03/11 09:40:42;;;;;;;0.70;0.30;;;;;;;;;;5053402;28;20108;-54
2024/03/11 09:43:11;;;;;;;3.60;0.40;;;;;;;;;;5053570;28;20064;-58
2024/03/11 09:45:40;;;;;;;0.50;0.20;;;;;;;;;;5053602;28;20108;-58
2024/03/11 09:48:08;;;;;;;0.57;0.25;;;;;;;;;;5053575;28;20032;-57
2024/03/11 09:50:37;;;;;;;1.40;0.50;;;;;;;;;;5053622;28;20375;-58
2024/03/11 09:53:06;;;;;;;0.57;0.40;;;;;;;;;;5053425;28;20387;-58
2024/03/11 09:55:33;;;;;;;1.50;0.70;;;;;;;;;;5053265;28;20405;-59
2024/03/11 09:58:05;;;;;;;1.08;0.50;;;;;;;;;;5053294;28;20055;-58
2024/03/11 10:00:33;;;;;;;1.25;0.50;;;;;;;;;;5053949;28;20036;-58
2024/03/11 10:03:00;;;;;;;0.52;0.25;;;;;;;;;;5053376;28;20025;-56
2024/03/11 10:05:32;;;;;;;1.45;0.50;;;;;;;;;;5053400;28;20135;-55
2024/03/11 10:07:59;;;;;;;1.75;0.30;;;;;;;;;;5054093;28;20033;-58
2024/03/11 10:10:25;;;;;;;0.65;0.30;;;;;;;;;;5053288;28;20032;-55
2024/03/11 10:12:58;;;;;;;0.52;0.28;;;;;;;;;;5053002;28;20037;-54
2024/03/11 10:15:32;;;;;;;1.10;0.38;;;;;;;;;;5053872;28;20041;-56
2024/03/11 10:18:01;;;;;;;0.50;0.22;;;;;;;;;;5053166;28;20087;-57
2024/03/11 10:20:27;;;;;;;0.95;0.30;;;;;;;;;;5054013;28;20033;-57
2024/03/11 10:23:04;;;;;;;0.40;0.20;;;;;;;;;;5053206;28;20032;-56
2024/03/11 10:25:31;;;;;;;0.60;0.28;;;;;;;;;;5053664;28;20036;-57
2024/03/11 10:27:58;;;;;;;0.25;0.20;;;;;;;;;;5053174;28;20032;-57
2024/03/11 10:30:26;;;;;;;0.85;0.30;;;;;;;;;;5053099;28;20064;-57
2024/03/11 10:32:55;;;;;;;0.57;0.22;;;;;;;;;;5053594;28;20029;-56
2024/03/11 10:35:21;;;;;;;0.82;0.40;;;;;;;;;;5053614;28;20057;-56
2024/03/11 10:37:50;;;;;;;0.80;0.38;;;;;;;;;;5052830;28;20100;-57
2024/03/11 10:40:19;;;;;;;0.65;0.30;;;;;;;;;;5053093;28;20033;-58
2024/03/11 10:42:55;;;;;;;0.52;0.20;;;;;;;;;;5053030;28;20025;-57
2024/03/11 10:45:32;;;;;;;0.77;0.22;;;;;;;;;;5053615;28;20029;-57
2024/03/11 10:48:00;;;;;;;1.60;0.52;;;;;;;;;;5053082;28;20029;-56
2024/03/11 10:50:28;;;;;;;0.35;0.20;;;;;;;;;;5056868;28;20036;-57
2024/03/11 10:52:57;;;;;;;0.60;0.40;;;;;;;;;;5057031;28;20348;-56
2024/03/11 10:55:24;;;;;;;0.57;0.30;;;;;;;;;;5056434;28;20383;-56
2024/03/11 10:57:52;;;;;;;1.25;0.47;;;;;;;;;;5057105;28;20088;-56
2024/03/11 11:02:45;;;;;;;0.25;0.10;;;;;;;;;;5056552;28;20029;-56
2024/03/11 11:05:15;;;;;;;0.82;0.47;;;;;;;;;;5056327;28;20066;-57
2024/03/11 11:07:42;;;;;;;0.43;0.17;;;;;;;;;;5056515;28;20033;-57
2024/03/11 11:10:13;;;;;;;0.65;0.20;;;;;;;;;;5056812;28;20448;-57
2024/03/11 11:12:42;;;;;;;0.70;0.15;;;;;;;;;;5056737;28;20482;-55
2024/03/11 11:15:08;;;;;;;0.77;0.43;;;;;;;;;;5056569;28;20375;-57
2024/03/11 11:17:39;;;;;;;0.90;0.40;;;;;;;;;;5055739;28;20029;-57
2024/03/11 11:22:51;;;;;;;0.68;0.30;;;;;;;;;;5056092;28;20091;-56
2024/03/11 11:25:34;;;;;;;0.70;0.32;;;;;;;;;;5056159;28;20025;-56
2024/03/11 11:28:01;;;;;;;0.40;0.22;;;;;;;;;;5055912;28;20065;-57
2024/03/11 11:30:28;;;;;;;1.05;0.43;;;;;;;;;;5055366;28;20040;-57
2024/03/11 11:32:54;;;;;;;1.02;0.30;;;;;;;;;;5055808;28;20063;-55
2024/03/11 11:35:34;;;;;;;0.98;0.40;;;;;;;;;;5055982;28;20031;-58
2024/03/11 11:38:20;;;;;;;0.75;0.25;;;;;;;;;;5055708;28;20024;-57
2024/03/11 11:40:46;;;;;;;0.90;0.43;;;;;;;;;;5055542;28;20040;-56
2024/03/11 11:43:20;;;;;;;0.93;0.30;;;;;;;;;;5056112;28;20029;-57
2024/03/11 11:45:55;;;;;;;0.28;0.15;;;;;;;;;;5055694;28;20028;-57
2024/03/11 11:48:26;;;;;;;0.68;0.30;;;;;;;;;;5055753;28;20474;-57
2024/03/11 11:50:57;;;;;;;0.63;0.30;;;;;;;;;;5055724;28;20041;-57
2024/03/11 11:53:27;;;;;;;0.30;0.10;;;;;;;;;;5055373;28;20032;-57
2024/03/11 11:55:53;;;;;;;1.42;0.60;;;;;;;;;;5055200;28;20182;-58
2024/03/11 11:58:19;;;;;;;0.52;0.20;;;;;;;;;;5055696;28;20398;-57
2024/03/11 12:00:45;;;;;;;0.25;0.17;;;;;;;;;;5054410;28;20120;-58
2024/03/11 12:03:27;;;;;;;0.43;0.13;;;;;;;;;;5055199;28;20056;-58
2024/03/11 12:06:03;;;;;;;1.20;0.43;;;;;;;;;;5055595;28;20090;-58
2024/03/11 12:08:30;;;;;;;1.33;0.20;;;;;;;;;;5055459;28;20136;-57
2024/03/11 12:11:10;;;;;;;0.88;0.40;;;;;;;;;;5054948;28;20092;-57
2024/03/11 12:13:36;;;;;;;2.28;0.45;;;;;;;;;;5055894;28;20025;-58
2024/03/11 12:16:12;;;;;;;1.17;0.43;;;;;;;;;;5055013;28;20028;-57
2024/03/11 12:18:39;;;;;;;0.90;0.30;;;;;;;;;;5055537;28;20017;-58
2024/03/11 12:21:14;;;;;;;0.80;0.30;;;;;;;;;;5054874;28;20029;-59
2024/03/11 12:23:43;;;;;;;0.20;0.10;;;;;;;;;;5055406;28;20017;-58
2024/03/11 12:26:12;;;;;;;1.02;0.43;;;;;;;;;;5054523;28;20021;-57
2024/03/11 12:28:43;;;;;;;2.55;0.30;;;;;;;;;;5055350;28;20061;-57
2024/03/11 12:31:09;;;;;;;;;;;;;;;;;;5055196;28;20114;-57
2024/03/11 12:33:37;;;;;;;0.68;0.28;;;;;;;;;;5055410;28;19905;-58
2024/03/11 12:36:05;;;;;;;1.02;0.35;;;;;;;;;;5054599;28;20443;-57
2024/03/11 12:38:32;;;;;;;0.50;0.22;;;;;;;;;;5055440;28;20025;-57
2024/03/11 12:40:58;;;;;;;0.40;0.17;;;;;;;;;;5054556;28;20095;-58
2024/03/11 12:43:30;;;;;;;0.55;0.20;;;;;;;;;;5055278;28;20391;-57
2024/03/11 12:45:59;;;;;;;1.15;0.45;;;;;;;;;;5054478;28;20021;-56
2024/03/11 12:48:27;;;;;;;2.08;0.30;;;;;;;;;;5055227;28;20025;-57
2024/03/11 12:50:55;;;;;;;0.55;0.20;;;;;;;;;;5054656;28;20068;-57
2024/03/11 12:53:23;;;;;;;1.27;0.50;;;;;;;;;;5054778;28;20029;-57
2024/03/11 12:56:00;;;;;;;0.80;0.17;;;;;;;;;;5054032;28;20021;-57
2024/03/11 12:58:26;;;;;;;1.17;0.40;;;;;;;;;;5054259;28;20025;-57
2024/03/11 13:01:02;;;;;;;0.20;0.10;;;;;;;;;;5054709;28;20565;-57
2024/03/11 13:03:28;;;;;;;0.10;0.00;;;;;;;;;;5054400;28;20029;-58
2024/03/11 13:05:54;;;;;;;0.52;0.30;;;;;;;;;;5054174;28;20044;-57
2024/03/11 13:08:20;;;;;;;1.30;0.30;;;;;;;;;;5054370;28;20517;-57
2024/03/11 13:10:48;;;;;;;0.20;0.10;;;;;;;;;;5054208;28;20451;-57
2024/03/11 13:13:20;;;;;;;1.27;0.50;;;;;;;;;;5053783;28;20108;-58
2024/03/11 13:15:48;;;;;;;0.47;0.22;;;;;;;;;;5053973;28;20108;-57
2024/03/11 13:18:14;;;;;;;0.52;0.32;;;;;;;;;;5053981;28;20037;-55
2024/03/11 13:20:40;;;;;;;1.10;0.38;;;;;;;;;;5053892;28;20039;-56
2024/03/11 13:23:08;;;;;;;0.40;0.20;;;;;;;;;;5053858;28;20025;-57
2024/03/11 13:25:34;;;;;;;0.45;0.20;;;;;;;;;;5054346;28;20478;-58
2024/03/11 13:28:00;;;;;;;0.38;0.17;;;;;;;;;;5054339;28;20530;-56
2024/03/11 13:30:26;;;;;;;0.40;0.20;;;;;;;;;;5053704;28;20124;-57
2024/03/11 13:32:56;;;;;;;0.28;0.20;;;;;;;;;;5053667;28;20025;-57
2024/03/11 13:35:24;;;;;;;0.68;0.30;;;;;;;;;;5053963;28;20051;-54
2024/03/11 13:37:50;;;;;;;0.57;0.30;;;;;;;;;;5054423;28;20108;-58
2024/03/11 13:40:19;;;;;;;0.43;0.20;;;;;;;;;;5054546;28;20036;-58
2024/03/11 13:42:45;;;;;;;1.10;0.25;;;;;;;;;;5053605;28;20036;-58
2024/03/11 13:45:12;;;;;;;0.80;0.38;;;;;;;;;;5053642;28;20021;-57
2024/03/11 13:47:38;;;;;;;0.25;0.10;;;;;;;;;;5054133;28;20026;-56
2024/03/11 13:50:14;;;;;;;0.80;0.30;;;;;;;;;;5053871;28;20111;-58
2024/03/11 13:52:41;;;;;;;0.43;0.30;;;;;;;;;;5053462;28;20033;-57
2024/03/11 13:55:07;;;;;;;1.25;0.50;;;;;;;;;;5053519;28;20034;-57
2024/03/11 13:57:33;;;;;;;0.82;0.40;;;;;;;;;;5053579;28;20505;-58
2024/03/11 13:59:59;;;;;;;1.58;0.45;;;;;;;;;;5053466;28;20033;-58
2024/03/11 14:02:25;;;;;;;0.82;0.30;;;;;;;;;;5053392;28;20470;-58
2024/03/11 14:04:52;;;;;;;0.38;0.20;;;;;;;;;;5052443;28;20052;-56
2024/03/11 14:07:20;;;;;;;0.77;0.43;;;;;;;;;;5053819;28;20029;-58
2024/03/11 14:09:46;;;;;;;0.43;0.10;;;;;;;;;;5054172;28;20467;-57
2024/03/11 14:12:12;;;;;;;0.60;0.30;;;;;;;;;;5053798;28;20033;-58
2024/03/11 14:14:40;;;;;;;1.33;0.45;;;;;;;;;;5053417;28;20031;-58
2024/03/11 14:17:08;;;;;;;0.45;0.20;;;;;;;;;;5053261;28;20025;-59
2024/03/11 14:19:35;;;;;;;0.98;0.30;;;;;;;;;;5053853;28;20103;-59
2024/03/11 14:22:01;;;;;;;0.40;0.20;;;;;;;;;;5053276;28;20029;-58
2024/03/11 14:24:28;;;;;;;0.77;0.30;;;;;;;;;;5055495;28;20039;-58
2024/03/11 14:26:54;;;;;;;0.57;0.30;;;;;;;;;;5057028;28;20417;-58
2024/03/11 14:29:20;;;;;;;8.60;0.28;;;;;;;;;;5057785;28;20052;-58
2024/03/11 14:31:46;;;;;;;0.90;0.20;;;;;;;;;;5056893;28;20033;-58
2024/03/11 14:34:13;;;;;;;0.47;0.20;;;;;;;;;;5057677;28;20027;-59
2024/03/11 14:36:42;;;;;;;0.75;0.25;;;;;;;;;;5057643;28;20060;-58
2024/03/11 14:39:17;;;;;;;1.10;0.20;;;;;;;;;;5057630;28;20052;-57
2024/03/11 14:41:46;;;;;;;0.50;0.20;;;;;;;;;;5057657;28;20071;-57
2024/03/11 14:44:12;;;;;;;0.20;0.10;;;;;;;;;;5056684;28;20063;-58
2024/03/11 14:46:40;;;;;;;0.65;0.30;;;;;;;;;;5057348;28;20067;-58
2024/03/11 14:49:07;;;;;;;0.40;0.20;;;;;;;;;;5057117;28;20410;-58